Time;durP1;ratioP1;P1;durP2;ratioP2;P2;SDS_P1;SDS_P2;PMS_P1;PMS_P2;Temp;Humidity;BMP_temperature;BMP_pressure;BME280_temperature;BME280_humidity;BME280_pressure;Samples;Min_cycle;Max_cycle;Signal;HPM_P1;HPM_P2
2021/09/24 00:00:34;;;;;;;5.22;0.50;;;;;;;15.61;64.81;100232.47;4868022;28;126248;-63
2021/09/24 00:03:00;;;;;;;7.38;0.50;;;;;;;15.59;65.18;100218.38;4910969;28;111028;-63
2021/09/24 00:05:26;;;;;;;5.38;0.60;;;;;;;15.57;64.56;100221.41;4922393;28;117613;-65
2021/09/24 00:07:53;;;;;;;6.68;0.68;;;;;;;15.57;64.49;100218.69;4922427;28;97784;-63
2021/09/24 00:10:21;;;;;;;3.85;0.40;;;;;;;15.52;64.50;100216.06;4921342;28;119583;-63
2021/09/24 00:12:48;;;;;;;3.88;0.60;;;;;;;15.48;64.57;100228.66;4922539;28;98943;-63
2021/09/24 00:15:15;;;;;;;5.85;0.47;;;;;;;15.47;63.96;100229.75;4922038;28;115441;-65
2021/09/24 00:17:41;;;;;;;2.97;0.40;;;;;;;15.44;63.66;100233.09;4921763;28;105218;-63
2021/09/24 00:20:08;;;;;;;5.68;0.65;;;;;;;15.41;63.69;100239.16;4920399;28;127034;-63
2021/09/24 00:22:34;;;;;;;5.15;0.60;;;;;;;15.38;63.25;100243.25;4922302;28;103799;-63
2021/09/24 00:25:00;;;;;;;4.88;0.60;;;;;;;15.35;63.60;100246.59;4921790;28;127947;-65
2021/09/24 00:27:26;;;;;;;3.85;0.40;;;;;;;15.33;63.02;100242.59;4921251;28;119020;-62
2021/09/24 00:29:52;;;;;;;5.85;0.50;;;;;;;15.31;62.75;100255.66;4922268;28;128293;-63
2021/09/24 00:32:21;;;;;;;5.68;0.70;;;;;;;15.29;62.92;100253.25;4921761;28;128074;-65
2021/09/24 00:34:48;;;;;;;8.27;0.50;;;;;;;15.27;62.57;100266.31;4923002;28;97951;-63
2021/09/24 00:37:14;;;;;;;3.88;0.45;;;;;;;15.23;62.82;100265.31;4922432;28;97938;-65
2021/09/24 00:39:40;;;;;;;6.03;0.55;;;;;;;15.21;62.43;100265.63;4922456;28;114165;-65
2021/09/24 00:42:07;;;;;;;7.15;0.57;;;;;;;15.19;62.71;100265.09;4921103;28;126645;-65
2021/09/24 00:44:44;;;;;;;6.05;0.65;;;;;;;15.15;62.52;100266.81;4921764;28;116823;-63
2021/09/24 00:47:10;;;;;;;7.57;0.60;;;;;;;15.13;61.72;100270.94;4921417;28;98003;-65
2021/09/24 00:49:37;;;;;;;6.05;0.60;;;;;;;15.10;61.42;100275.06;4921497;28;128006;-63
2021/09/24 00:52:04;;;;;;;5.95;0.68;;;;;;;15.07;61.90;100283.00;4921815;28;106120;-63
2021/09/24 00:54:30;;;;;;;5.68;0.57;;;;;;;15.04;61.33;100286.31;4922267;28;98111;-63
2021/09/24 00:56:57;;;;;;;5.30;0.50;;;;;;;15.00;61.98;100291.53;4921290;28;117340;-63
2021/09/24 00:59:24;;;;;;;5.35;0.70;;;;;;;14.95;61.64;100292.44;4920920;28;98902;-62
2021/09/24 01:01:50;;;;;;;6.70;0.63;;;;;;;14.91;61.87;100286.03;4921269;28;119099;-65
2021/09/24 01:04:16;;;;;;;7.38;0.80;;;;;;;14.91;61.97;100285.22;4904229;28;99832;-66
2021/09/24 01:06:42;;;;;;;5.57;0.70;;;;;;;14.88;62.05;100283.09;4919758;28;109728;-63
2021/09/24 01:09:08;;;;;;;3.05;0.40;;;;;;;14.86;61.93;100293.47;4903798;28;108077;-65
2021/09/24 01:11:37;;;;;;;8.15;0.40;;;;;;;14.84;62.41;100295.66;4920763;28;118946;-65
2021/09/24 01:14:04;;;;;;;6.68;0.60;;;;;;;14.84;62.40;100301.88;4920047;28;98257;-63
2021/09/24 01:16:30;;;;;;;7.22;0.55;;;;;;;14.84;62.18;100292.94;4919984;28;97992;-63
2021/09/24 01:18:56;;;;;;;4.38;0.68;;;;;;;14.84;62.10;100301.88;4903849;28;98044;-65
2021/09/24 01:21:23;;;;;;;7.45;0.88;;;;;;;14.83;62.55;100288.63;4920848;28;128757;-63
2021/09/24 01:23:49;;;;;;;6.93;0.80;;;;;;;14.83;62.09;100294.06;4920168;28;97799;-62
2021/09/24 01:26:15;;;;;;;7.63;0.80;;;;;;;14.80;62.06;100300.88;4920947;28;108394;-65
2021/09/24 01:28:44;;;;;;;5.80;0.88;;;;;;;14.77;61.82;100295.25;4921606;28;98975;-63
2021/09/24 01:31:14;;;;;;;7.57;0.75;;;;;;;14.76;62.03;100299.88;4920936;28;98747;-65
2021/09/24 01:33:47;;;;;;;6.10;0.98;;;;;;;14.73;62.02;100300.44;4912581;28;97850;-62
2021/09/24 01:36:13;;;;;;;6.18;0.70;;;;;;;14.75;62.20;100302.88;4921677;28;98003;-65
2021/09/24 01:38:39;;;;;;;6.82;0.90;;;;;;;14.72;61.92;100291.50;4921127;28;120086;-65
2021/09/24 01:41:06;;;;;;;7.75;1.13;;;;;;;14.70;62.11;100295.66;4919732;28;108663;-65
2021/09/24 01:43:33;;;;;;;7.35;0.80;;;;;;;14.69;61.94;100297.53;4921868;28;97996;-65
2021/09/24 01:45:59;;;;;;;9.30;0.93;;;;;;;14.68;62.05;100295.13;4921514;28;110451;-62
2021/09/24 01:48:25;;;;;;;8.05;0.85;;;;;;;14.67;62.04;100290.81;4920503;28;98291;-63
2021/09/24 01:50:51;;;;;;;7.70;1.00;;;;;;;14.64;61.75;100294.13;4918346;28;127469;-65
2021/09/24 01:53:17;;;;;;;8.02;0.98;;;;;;;14.59;61.74;100288.78;4921400;28;98987;-62
2021/09/24 01:55:43;;;;;;;9.68;1.20;;;;;;;14.58;61.34;100300.72;4919693;28;99872;-66
2021/09/24 01:58:09;;;;;;;6.97;0.80;;;;;;;14.58;61.62;100292.59;4921187;28;98899;-64
2021/09/24 02:00:35;;;;;;;8.43;1.02;;;;;;;14.57;61.22;100296.41;4916560;28;128502;-62
2021/09/24 02:03:01;;;;;;;10.23;1.05;;;;;;;14.54;61.14;100321.41;4902231;28;117083;-65
2021/09/24 02:05:27;;;;;;;8.20;1.10;;;;;;;14.53;61.44;100319.81;4921564;28;98740;-65
2021/09/24 02:07:53;;;;;;;5.63;1.00;;;;;;;14.51;61.18;100324.72;4920565;28;128085;-65
2021/09/24 02:10:19;;;;;;;8.07;0.85;;;;;;;14.51;61.46;100324.72;4919184;28;127914;-65
2021/09/24 02:12:45;;;;;;;6.28;1.15;;;;;;;14.48;61.62;100326.09;4920597;28;110917;-62
2021/09/24 02:15:12;;;;;;;8.80;1.10;;;;;;;14.48;61.43;100328.81;4920696;28;117976;-62
2021/09/24 02:17:39;;;;;;;9.20;1.33;;;;;;;14.46;61.58;100329.09;4921076;28;98427;-62
2021/09/24 02:20:07;;;;;;;7.38;1.13;;;;;;;14.44;61.56;100339.44;4919154;28;99970;-65
2021/09/24 02:22:33;;;;;;;12.15;1.35;;;;;;;14.44;61.93;100338.63;4920598;28;97748;-65
2021/09/24 02:24:59;;;;;;;8.13;1.33;;;;;;;14.40;61.50;100332.19;4921761;28;97777;-62
2021/09/24 02:27:25;;;;;;;8.35;1.23;;;;;;;14.37;61.78;100333.56;4919271;28;128758;-65
2021/09/24 02:29:51;;;;;;;8.65;1.17;;;;;;;14.34;61.59;100342.28;4919373;28;126539;-63
2021/09/24 02:32:17;;;;;;;9.57;1.20;;;;;;;14.30;61.59;100333.13;4919907;28;126598;-62
2021/09/24 02:34:43;;;;;;;10.65;1.48;;;;;;;14.27;61.78;100341.09;4920741;28;117871;-65
2021/09/24 02:37:09;;;;;;;10.10;1.70;;;;;;;14.23;61.56;100349.00;4917665;28;129140;-62
2021/09/24 02:39:35;;;;;;;12.02;1.33;;;;;;;14.21;61.70;100360.13;4918315;28;127971;-65
2021/09/24 02:42:02;;;;;;;9.80;1.25;;;;;;;14.18;62.10;100370.75;4917243;28;126902;-63
2021/09/24 02:44:28;;;;;;;10.10;1.15;;;;;;;14.15;61.96;100363.22;4920929;28;107805;-62
2021/09/24 02:46:54;;;;;;;11.50;1.50;;;;;;;14.13;61.67;100368.09;4919755;28;123982;-65
2021/09/24 02:49:20;;;;;;;8.02;1.77;;;;;;;14.10;62.06;100374.91;4920230;28;98738;-65
2021/09/24 02:51:46;;;;;;;10.80;1.27;;;;;;;14.08;61.59;100370.91;4919541;28;127606;-65
2021/09/24 02:54:12;;;;;;;12.15;1.67;;;;;;;14.05;61.51;100374.19;4921209;28;97851;-65
2021/09/24 02:56:38;;;;;;;10.65;1.40;;;;;;;14.02;61.65;100367.44;4919115;28;126697;-62
2021/09/24 02:59:04;;;;;;;14.57;1.75;;;;;;;14.00;61.54;100369.66;4918267;28;128196;-62
2021/09/24 03:01:30;;;;;;;9.68;1.40;;;;;;;13.97;61.58;100371.03;4898016;28;120617;-65
2021/09/24 03:03:56;;;;;;;10.68;1.60;;;;;;;13.93;61.74;100374.63;4914586;28;117425;-63
2021/09/24 03:06:22;;;;;;;11.45;1.70;;;;;;;13.90;61.36;100380.63;4920468;28;100628;-66
2021/09/24 03:08:48;;;;;;;13.15;1.90;;;;;;;13.85;61.54;100386.91;4918164;28;128210;-62
2021/09/24 03:11:14;;;;;;;10.05;1.95;;;;;;;13.82;61.31;100384.78;4919245;28;112639;-65
2021/09/24 03:13:40;;;;;;;12.57;1.70;;;;;;;13.80;61.24;100383.47;4921157;28;97899;-62
2021/09/24 03:16:07;;;;;;;14.38;1.70;;;;;;;13.77;61.02;100389.47;4920039;28;107640;-65
2021/09/24 03:18:33;;;;;;;12.50;1.83;;;;;;;13.75;61.20;100392.44;4920117;28;98489;-62
2021/09/24 03:20:59;;;;;;;12.77;2.08;;;;;;;13.74;61.35;100399.78;4919534;28;127377;-62
2021/09/24 03:23:25;;;;;;;13.02;1.90;;;;;;;13.72;61.61;100383.00;4920818;28;97740;-65
2021/09/24 03:25:51;;;;;;;11.20;1.80;;;;;;;13.71;61.29;100402.25;4919074;28;126837;-65
2021/09/24 03:28:17;;;;;;;9.80;1.55;;;;;;;13.70;61.21;100395.22;4901423;28;114192;-65
2021/09/24 03:30:43;;;;;;;11.13;1.80;;;;;;;13.69;61.42;100401.75;4902489;28;98242;-62
2021/09/24 03:33:09;;;;;;;11.57;1.80;;;;;;;13.67;61.12;100410.16;4902290;28;107775;-62
2021/09/24 03:35:35;;;;;;;8.05;1.25;;;;;;;13.64;61.40;100412.66;4919625;28;99032;-62
2021/09/24 03:38:01;;;;;;;11.57;1.45;;;;;;;13.63;61.23;100411.81;4919024;28;126711;-65
2021/09/24 03:40:27;;;;;;;11.90;1.73;;;;;;;13.61;61.52;100407.81;4919464;28;128564;-65
2021/09/24 03:42:53;;;;;;;11.27;1.83;;;;;;;13.60;61.51;100400.78;4919889;28;117203;-62
2021/09/24 03:45:19;;;;;;;14.38;2.10;;;;;;;13.60;61.66;100419.75;4922064;28;99873;-62
2021/09/24 03:47:45;;;;;;;12.32;1.90;;;;;;;13.59;61.27;100420.81;4920340;28;121163;-62
2021/09/24 03:50:12;;;;;;;12.80;1.60;;;;;;;13.57;61.42;100417.59;4922574;28;126090;-62
2021/09/24 03:52:38;;;;;;;9.32;1.25;;;;;;;13.57;61.51;100413.00;4922385;28;117842;-65
2021/09/24 03:55:04;;;;;;;15.45;1.88;;;;;;;13.56;61.85;100426.81;4923627;28;98447;-65
2021/09/24 03:57:30;;;;;;;12.02;1.70;;;;;;;13.53;61.72;100425.50;4922220;28;115812;-65
2021/09/24 03:59:56;;;;;;;13.52;1.88;;;;;;;13.50;61.89;100415.22;4922801;28;125434;-62
2021/09/24 04:02:22;;;;;;;9.25;1.45;;;;;;;13.49;62.08;100419.84;4922142;28;118253;-65
2021/09/24 04:04:48;;;;;;;12.52;1.70;;;;;;;13.47;61.36;100432.03;4921867;28;128734;-65
2021/09/24 04:07:15;;;;;;;12.70;1.98;;;;;;;13.45;61.88;100432.34;4921922;28;127864;-65
2021/09/24 04:09:42;;;;;;;13.02;1.77;;;;;;;13.45;61.86;100432.34;4922637;28;98735;-65
2021/09/24 04:12:08;;;;;;;12.63;2.05;;;;;;;13.42;62.04;100424.78;4922692;28;98114;-65
2021/09/24 04:14:34;;;;;;;14.90;1.95;;;;;;;13.42;62.20;100432.09;4922605;28;114972;-62
2021/09/24 04:17:00;;;;;;;12.73;1.92;;;;;;;13.41;62.20;100428.59;4921550;28;127443;-65
2021/09/24 04:19:26;;;;;;;11.02;1.60;;;;;;;13.39;62.46;100425.34;4921806;28;127435;-62
2021/09/24 04:21:52;;;;;;;14.48;2.22;;;;;;;13.38;62.42;100425.66;4922332;28;116833;-65
2021/09/24 04:24:18;;;;;;;11.82;1.83;;;;;;;13.35;62.17;100428.94;4923302;28;98812;-65
2021/09/24 04:26:45;;;;;;;16.38;2.03;;;;;;;13.35;62.44;100439.75;4922108;28;123738;-65
2021/09/24 04:29:11;;;;;;;13.70;1.75;;;;;;;13.33;62.56;100436.53;4923375;28;108101;-62
2021/09/24 04:31:37;;;;;;;12.00;1.88;;;;;;;13.32;62.67;100437.63;4921338;28;119017;-63
2021/09/24 04:34:03;;;;;;;14.52;1.90;;;;;;;13.30;63.08;100437.91;4921607;28;129303;-65
2021/09/24 04:36:29;;;;;;;11.40;1.80;;;;;;;13.29;63.20;100444.44;4921386;28;113508;-62
2021/09/24 04:38:56;;;;;;;14.55;1.90;;;;;;;13.26;62.66;100445.00;4921443;28;125749;-63
2021/09/24 04:41:22;;;;;;;10.50;1.88;;;;;;;13.25;63.07;100449.59;4920357;28;97861;-62
2021/09/24 04:43:48;;;;;;;14.10;2.15;;;;;;;13.23;63.46;100454.47;4922114;28;120217;-65
2021/09/24 04:46:14;;;;;;;11.80;2.17;;;;;;;13.22;62.78;100463.66;4921838;28;128088;-65
2021/09/24 04:48:40;;;;;;;11.73;2.00;;;;;;;13.21;63.24;100462.06;4919268;28;127180;-65
2021/09/24 04:51:06;;;;;;;15.68;2.20;;;;;;;13.22;63.28;100462.88;4921206;28;116747;-65
2021/09/24 04:53:33;;;;;;;14.82;2.25;;;;;;;13.22;63.18;100462.88;4921792;28;98336;-62
2021/09/24 04:55:59;;;;;;;10.23;2.00;;;;;;;13.20;63.05;100467.75;4886516;28;128121;-63
2021/09/24 04:58:25;;;;;;;11.75;1.98;;;;;;;13.18;63.07;100459.91;4922415;28;97905;-62
2021/09/24 05:00:51;;;;;;;18.27;2.25;;;;;;;13.19;63.36;100463.44;4921820;28;117065;-65
2021/09/24 05:03:17;;;;;;;13.77;2.20;;;;;;;13.19;63.15;100464.22;4919520;28;127685;-64
2021/09/24 05:05:43;;;;;;;13.93;1.77;;;;;;;13.19;63.11;100464.22;4921584;28;128482;-62
2021/09/24 05:08:09;;;;;;;13.98;1.95;;;;;;;13.19;62.93;100469.63;4921876;28;97892;-65
2021/09/24 05:10:35;;;;;;;13.82;2.17;;;;;;;13.19;63.03;100452.59;4923205;28;97988;-65
2021/09/24 05:13:01;;;;;;;15.93;2.13;;;;;;;13.20;63.29;100460.44;4920934;28;128039;-62
2021/09/24 05:15:28;;;;;;;14.55;2.10;;;;;;;13.23;63.30;100461.78;4920859;28;128188;-63
2021/09/24 05:17:54;;;;;;;12.95;2.55;;;;;;;13.25;63.19;100471.25;4921153;28;99449;-62
2021/09/24 05:20:20;;;;;;;12.70;2.30;;;;;;;13.27;63.47;100468.25;4921720;28;118216;-65
2021/09/24 05:22:46;;;;;;;13.52;2.05;;;;;;;13.27;63.26;100468.25;4920265;28;113326;-65
2021/09/24 05:25:12;;;;;;;11.27;2.05;;;;;;;13.31;62.86;100476.63;4920420;28;127977;-65
2021/09/24 05:27:39;;;;;;;11.93;2.00;;;;;;;13.33;63.01;100474.44;4920872;28;119489;-62
2021/09/24 05:30:06;;;;;;;15.27;1.90;;;;;;;13.35;63.38;100475.75;4920478;28;98061;-65
2021/09/24 05:32:32;;;;;;;13.63;2.20;;;;;;;13.37;63.23;100476.28;4919560;28;98861;-62
2021/09/24 05:34:58;;;;;;;12.10;1.75;;;;;;;13.39;63.11;100476.78;4921316;28;126915;-66
2021/09/24 05:37:24;;;;;;;12.77;2.13;;;;;;;13.41;63.16;100481.94;4921816;28;100855;-64
2021/09/24 05:39:50;;;;;;;13.68;2.20;;;;;;;13.43;63.16;100485.97;4921641;28;117960;-65
2021/09/24 05:42:16;;;;;;;9.48;1.92;;;;;;;13.45;62.81;100486.50;4920329;28;127219;-62
2021/09/24 05:44:42;;;;;;;14.55;2.50;;;;;;;13.47;62.87;100491.63;4921498;28;99238;-62
2021/09/24 05:47:08;;;;;;;16.58;2.20;;;;;;;13.49;63.00;100484.84;4921398;28;98717;-62
2021/09/24 05:49:34;;;;;;;13.48;2.08;;;;;;;13.51;63.41;100492.66;4921581;28;110571;-62
2021/09/24 05:52:01;;;;;;;12.15;2.40;;;;;;;13.54;62.90;100496.72;4921276;28;99195;-62
2021/09/24 05:54:27;;;;;;;14.82;2.33;;;;;;;13.57;63.05;100502.34;4921716;28;98490;-62
2021/09/24 05:56:54;;;;;;;17.88;2.35;;;;;;;13.60;62.85;100498.28;4920051;28;119098;-62
2021/09/24 05:59:21;;;;;;;10.43;2.50;;;;;;;13.65;62.83;100498.22;4921468;28;98009;-62
2021/09/24 06:01:48;;;;;;;16.13;2.58;;;;;;;13.76;62.99;100505.16;4920769;28;98102;-62
2021/09/24 06:04:16;;;;;;;16.52;2.03;;;;;;;13.93;62.77;100513.63;4920898;28;99370;-64
2021/09/24 06:06:42;;;;;;;14.25;2.70;;;;;;;14.16;62.35;100513.91;4919813;28;98548;-64
2021/09/24 06:09:08;;;;;;;15.52;2.50;;;;;;;14.35;61.85;100511.22;4918914;28;109269;-62
2021/09/24 06:11:34;;;;;;;12.93;2.20;;;;;;;14.43;61.44;100508.66;4920561;28;98406;-65
2021/09/24 06:14:01;;;;;;;14.20;1.92;;;;;;;14.51;61.33;100509.16;4920298;28;126339;-62
2021/09/24 06:16:27;;;;;;;16.13;2.38;;;;;;;14.57;61.35;100502.53;4921032;28;98478;-62
2021/09/24 06:18:53;;;;;;;14.23;2.50;;;;;;;14.64;61.42;100503.78;4919800;28;97769;-62
2021/09/24 06:21:21;;;;;;;11.18;2.08;;;;;;;14.67;61.06;100503.22;4902174;28;128264;-64
2021/09/24 06:23:47;;;;;;;14.05;2.28;;;;;;;14.73;61.23;100503.94;4920100;28;98276;-62
2021/09/24 06:26:13;;;;;;;13.38;2.00;;;;;;;14.83;61.17;100503.00;4920644;28;99191;-65
2021/09/24 06:28:39;;;;;;;14.23;2.53;;;;;;;14.84;60.69;100493.75;4920665;28;118032;-62
2021/09/24 06:31:05;;;;;;;12.48;1.85;;;;;;;15.04;60.53;100507.00;4920707;28;98783;-65
2021/09/24 06:33:31;;;;;;;13.52;2.17;;;;;;;15.15;60.31;100510.34;4917689;28;123512;-65
2021/09/24 06:35:57;;;;;;;12.77;2.10;;;;;;;15.24;59.98;100516.72;4901417;28;125463;-63
2021/09/24 06:38:23;;;;;;;13.13;2.15;;;;;;;15.27;59.66;100510.69;4903617;28;98853;-65
2021/09/24 06:40:49;;;;;;;13.13;1.90;;;;;;;15.33;59.70;100525.00;4918794;28;98953;-64
2021/09/24 06:43:16;;;;;;;17.02;2.33;;;;;;;15.37;59.65;100517.88;4919506;28;126144;-62
2021/09/24 06:45:42;;;;;;;15.38;2.20;;;;;;;15.41;59.46;100524.31;4920305;28;117097;-65
2021/09/24 06:48:08;;;;;;;12.23;2.38;;;;;;;15.44;59.68;100521.81;4918173;28;117281;-65
2021/09/24 06:50:35;;;;;;;12.50;1.95;;;;;;;15.50;59.09;100527.16;4919297;28;98506;-62
2021/09/24 06:53:01;;;;;;;15.55;2.03;;;;;;;15.54;59.42;100534.41;4919671;28;127252;-66
2021/09/24 06:55:27;;;;;;;13.23;2.38;;;;;;;15.62;58.97;100530.19;4920102;28;110380;-62
2021/09/24 06:57:54;;;;;;;12.85;1.88;;;;;;;15.69;58.77;100527.91;4902332;28;98120;-62
2021/09/24 07:00:20;;;;;;;14.13;2.13;;;;;;;15.78;58.86;100533.47;4902535;28;98704;-63
2021/09/24 07:02:46;;;;;;;14.50;2.28;;;;;;;15.86;58.74;100533.56;4918366;28;98631;-66
2021/09/24 07:05:12;;;;;;;12.95;2.40;;;;;;;15.95;58.34;100530.94;4886442;28;117642;-62
2021/09/24 07:07:39;;;;;;;14.10;2.10;;;;;;;16.02;58.05;100534.06;4918370;28;117957;-63
2021/09/24 07:10:06;;;;;;;15.20;2.70;;;;;;;16.09;58.09;100529.06;4920198;28;98407;-65
2021/09/24 07:12:32;;;;;;;19.33;2.17;;;;;;;16.18;57.64;100534.56;4919491;28;114964;-65
2021/09/24 07:14:58;;;;;;;16.58;2.55;;;;;;;16.25;57.61;100537.69;4920048;28;119995;-62
2021/09/24 07:17:24;;;;;;;16.30;2.60;;;;;;;16.28;57.46;100545.25;4922654;28;98125;-63
2021/09/24 07:19:50;;;;;;;12.98;3.05;;;;;;;16.41;57.36;100551.78;4923754;28;98507;-65
2021/09/24 07:22:16;;;;;;;19.55;3.35;;;;;;;16.53;57.31;100554.00;4922293;28;128003;-62
2021/09/24 07:24:42;;;;;;;17.50;2.97;;;;;;;16.64;56.80;100544.50;4923812;28;97829;-65
2021/09/24 07:27:08;;;;;;;18.98;2.90;;;;;;;16.66;56.89;100543.09;4924229;28;97991;-65
2021/09/24 07:29:35;;;;;;;20.67;2.65;;;;;;;16.82;56.31;100551.75;4920925;28;127319;-62
2021/09/24 07:32:01;;;;;;;15.43;3.05;;;;;;;16.96;56.10;100545.44;4904439;28;128571;-63
2021/09/24 07:34:27;;;;;;;16.67;2.70;;;;;;;17.12;56.01;100546.69;4923956;28;97763;-62
2021/09/24 07:36:53;;;;;;;14.50;2.50;;;;;;;17.19;55.96;100552.53;4923741;28;97808;-63
2021/09/24 07:39:19;;;;;;;15.07;2.50;;;;;;;17.38;55.59;100552.34;4922711;28;128121;-62
2021/09/24 07:41:45;;;;;;;14.70;2.60;;;;;;;17.28;56.04;100558.03;4920032;28;127445;-63
2021/09/24 07:44:11;;;;;;;23.42;4.25;;;;;;;17.49;55.28;100553.69;4919914;28;127512;-63
2021/09/24 07:46:37;;;;;;;14.07;2.40;;;;;;;17.67;54.46;100569.00;4903514;28;117471;-62
2021/09/24 07:49:04;;;;;;;11.63;2.30;;;;;;;17.77;54.45;100556.28;4910809;28;127339;-65
2021/09/24 07:51:31;;;;;;;12.73;2.35;;;;;;;17.74;54.28;100560.41;4921596;28;98021;-65
2021/09/24 07:53:57;;;;;;;14.05;2.38;;;;;;;17.97;53.47;100566.63;4922601;28;115826;-65
2021/09/24 07:56:24;;;;;;;12.32;2.20;;;;;;;18.00;53.23;100559.72;4923470;28;97728;-66
2021/09/24 07:58:51;;;;;;;15.23;2.47;;;;;;;18.30;52.59;100556.16;4923337;28;98479;-65
2021/09/24 08:01:17;;;;;;;10.57;2.10;;;;;;;18.69;52.13;100562.66;4922914;28;98347;-65
2021/09/24 08:03:43;;;;;;;12.13;2.20;;;;;;;18.89;51.44;100566.72;4923283;28;98384;-66
2021/09/24 08:06:09;;;;;;;13.48;1.98;;;;;;;19.38;50.61;100573.63;4923818;28;98106;-65
2021/09/24 08:08:35;;;;;;;10.63;1.88;;;;;;;19.96;49.34;100565.91;4922527;28;127200;-63
2021/09/24 08:11:02;;;;;;;13.15;2.17;;;;;;;20.52;48.12;100576.81;4922382;28;123657;-66
2021/09/24 08:13:28;;;;;;;12.00;1.85;;;;;;;20.65;47.95;100570.28;4921987;28;97699;-65
2021/09/24 08:15:54;;;;;;;10.90;1.98;;;;;;;22.94;43.48;100565.16;4923556;28;100277;-63
2021/09/24 08:18:21;;;;;;;10.23;1.85;;;;;;;23.15;43.37;100564.97;4922543;28;98383;-66
2021/09/24 08:20:47;;;;;;;11.30;1.52;;;;;;;24.52;40.37;100577.53;4921358;28;98385;-66
2021/09/24 08:23:13;;;;;;;11.65;1.92;;;;;;;25.19;39.36;100579.03;4919248;28;114273;-66
2021/09/24 08:25:39;;;;;;;10.07;1.92;;;;;;;24.25;40.69;100593.81;4905492;28;97923;-63
2021/09/24 08:28:06;;;;;;;10.82;1.88;;;;;;;23.42;41.17;100584.56;4920051;28;100045;-65
2021/09/24 08:30:32;;;;;;;11.10;1.98;;;;;;;24.83;38.57;100584.91;4921295;28;117724;-65
2021/09/24 08:33:01;;;;;;;9.63;1.85;;;;;;;25.27;37.32;100587.41;4922686;28;98047;-63
2021/09/24 08:35:27;;;;;;;11.90;2.00;;;;;;;27.56;34.07;100586.25;4923152;28;97835;-65
2021/09/24 08:37:53;;;;;;;12.73;2.10;;;;;;;27.18;34.83;100579.88;4922590;28;98313;-66
2021/09/24 08:40:21;;;;;;;10.43;1.83;;;;;;;27.14;34.94;100576.28;4922592;28;98727;-65
2021/09/24 08:42:47;;;;;;;9.13;1.88;;;;;;;27.29;34.88;100578.03;4922314;28;98239;-64
2021/09/24 08:45:23;;;;;;;7.93;1.45;;;;;;;28.32;32.97;100572.66;4922013;28;118495;-63
2021/09/24 08:47:53;;;;;;;10.40;1.50;;;;;;;27.76;33.71;100573.81;4922411;28;98282;-63
2021/09/24 08:50:19;;;;;;;9.00;1.40;;;;;;;27.51;33.86;100583.78;4922240;28;98618;-65
2021/09/24 08:52:45;;;;;;;9.60;1.48;;;;;;;26.89;35.32;100579.50;4922198;28;99536;-63
2021/09/24 08:55:11;;;;;;;7.32;1.40;;;;;;;26.82;34.78;100576.66;4922925;28;98141;-65
2021/09/24 08:57:37;;;;;;;8.93;1.38;;;;;;;26.07;35.65;100570.00;4921094;28;98797;-63
2021/09/24 09:00:08;;;;;;;8.73;1.17;;;;;;;25.93;35.88;100569.75;4919312;28;109239;-63
2021/09/24 09:03:05;;;;;;;11.98;1.48;;;;;;;26.01;36.47;100562.38;4903106;28;114753;-65
2021/09/24 09:05:38;;;;;;;8.80;1.77;;;;;;;25.35;37.12;100558.81;4923218;28;98333;-63
2021/09/24 09:08:18;;;;;;;7.90;1.15;;;;;;;25.04;37.58;100566.09;4921772;28;107763;-66
2021/09/24 09:10:52;;;;;;;8.45;1.20;;;;;;;25.11;37.11;100565.44;4922517;28;98428;-65
2021/09/24 09:13:18;;;;;;;8.07;1.42;;;;;;;25.11;36.35;100569.03;4921789;28;98268;-65
2021/09/24 09:15:56;;;;;;;7.25;1.38;;;;;;;24.97;36.53;100566.72;4921296;28;98078;-65
2021/09/24 09:18:23;;;;;;;8.10;1.30;;;;;;;24.56;36.49;100564.63;4888330;28;98504;-63
2021/09/24 09:20:49;;;;;;;7.93;1.50;;;;;;;24.08;37.57;100567.44;4887567;28;98178;-63
2021/09/24 09:23:16;;;;;;;8.05;1.42;;;;;;;23.53;38.52;100575.44;4920689;28;98420;-65
2021/09/24 09:25:44;;;;;;;7.72;1.20;;;;;;;23.12;38.98;100573.13;4904172;28;98111;-65
2021/09/24 09:28:16;;;;;;;8.75;1.50;;;;;;;23.39;38.83;100566.81;4922142;28;99025;-65
2021/09/24 09:30:43;;;;;;;;;;;;;;;23.90;38.60;100563.47;4904324;28;98764;-63
2021/09/24 09:33:17;;;;;;;8.70;1.48;;;;;;;23.71;38.68;100578.69;4921352;28;98086;-66
2021/09/24 09:35:51;;;;;;;7.88;1.27;;;;;;;23.03;39.34;100574.06;4922848;28;98113;-66
2021/09/24 09:38:28;;;;;;;9.15;1.42;;;;;;;22.90;40.03;100577.16;4921129;28;99543;-66
2021/09/24 09:41:08;;;;;;;9.73;1.30;;;;;;;22.25;40.60;100575.19;4921816;28;98520;-63
2021/09/24 09:44:00;;;;;;;10.02;1.23;;;;;;;21.97;41.24;100582.47;4921530;28;98129;-66
2021/09/24 09:46:34;;;;;;;8.63;1.00;;;;;;;21.75;41.80;100573.50;4902386;28;98150;-65
2021/09/24 09:49:10;;;;;;;8.07;1.30;;;;;;;21.31;42.33;100586.03;4908726;28;98256;-63
2021/09/24 09:51:40;;;;;;;8.20;1.38;;;;;;;20.94;43.01;100585.84;4921315;28;98421;-62
2021/09/24 09:54:07;;;;;;;11.23;1.42;;;;;;;20.56;43.58;100588.72;4921544;28;98396;-65
2021/09/24 09:56:42;;;;;;;7.95;1.15;;;;;;;20.11;44.48;100592.75;4921812;28;98024;-65
2021/09/24 09:59:23;;;;;;;9.10;1.30;;;;;;;19.75;44.85;100589.66;4921458;28;99754;-62
2021/09/24 10:02:09;;;;;;;9.63;1.10;;;;;;;19.51;45.78;100588.22;4921160;28;99599;-65
2021/09/24 10:04:41;;;;;;;7.45;1.20;;;;;;;19.25;46.11;100588.25;4906030;28;98020;-65
2021/09/24 10:07:22;;;;;;;8.50;1.13;;;;;;;19.01;46.68;100596.94;4921658;28;97913;-63
2021/09/24 10:09:49;;;;;;;6.68;1.13;;;;;;;18.82;47.40;100588.22;4919530;28;97891;-62
2021/09/24 10:12:21;;;;;;;9.70;1.00;;;;;;;18.60;47.77;100589.94;4920936;28;98913;-65
2021/09/24 10:14:49;;;;;;;7.37;1.23;;;;;;;18.50;48.11;100598.41;4921045;28;98510;-62
2021/09/24 10:17:16;;;;;;;11.10;1.10;;;;;;;18.50;48.17;100594.91;4921451;28;98289;-65
2021/09/24 10:19:45;;;;;;;8.73;1.33;;;;;;;18.42;48.84;100604.66;4918478;28;115252;-62
2021/09/24 10:22:12;;;;;;;7.05;1.08;;;;;;;18.30;49.23;100605.25;4921076;28;98098;-65
2021/09/24 10:24:41;;;;;;;8.35;1.42;;;;;;;18.20;49.42;100608.28;4921554;28;97861;-66
2021/09/24 10:27:21;;;;;;;6.47;1.27;;;;;;;18.27;49.62;100616.00;4920557;28;116326;-65
2021/09/24 10:29:47;;;;;;;8.23;1.27;;;;;;;18.78;48.43;100600.91;4884570;28;112923;-65
2021/09/24 10:32:23;;;;;;;5.88;1.20;;;;;;;19.27;47.54;100610.59;4930628;28;127393;-65
2021/09/24 10:35:02;;;;;;;5.47;1.00;;;;;;;19.83;46.81;100600.56;4920323;28;115786;-62
2021/09/24 10:37:33;;;;;;;5.75;1.13;;;;;;;19.88;47.46;100590.56;4921379;28;97895;-63
2021/09/24 10:40:21;;;;;;;4.60;1.05;;;;;;;20.01;47.43;100598.59;4920183;28;98658;-63
2021/09/24 10:42:48;;;;;;;4.53;0.88;;;;;;;20.18;47.40;100597.72;4913386;28;97927;-62
2021/09/24 10:45:21;;;;;;;4.85;0.77;;;;;;;20.32;46.90;100595.56;4921155;28;97892;-62
2021/09/24 10:47:56;;;;;;;4.90;0.70;;;;;;;;;;4921381;28;97920;-66
2021/09/24 10:50:37;;;;;;;4.85;0.93;;;;;;;20.72;46.59;100591.66;4920770;28;98084;-66
2021/09/24 10:53:09;;;;;;;5.32;1.00;;;;;;;20.78;46.75;100584.84;4924145;28;98698;-66
2021/09/24 10:55:41;;;;;;;3.72;0.80;;;;;;;20.68;46.71;100588.78;4922864;28;99664;-63
2021/09/24 10:58:16;;;;;;;;;;;;;;;20.63;47.00;100591.69;4907201;28;98027;-66
2021/09/24 11:00:49;;;;;;;3.22;0.80;;;;;;;20.40;47.18;100584.91;4922835;28;98675;-66
2021/09/24 11:03:19;;;;;;;4.47;0.60;;;;;;;20.30;47.23;100577.84;4923347;28;101000;-66
2021/09/24 11:06:08;;;;;;;3.47;0.80;;;;;;;20.08;47.85;100578.91;4924304;28;97782;-66
2021/09/24 11:08:37;;;;;;;2.58;0.52;;;;;;;19.87;48.72;100587.03;4921737;28;97758;-66
2021/09/24 11:11:24;;;;;;;5.45;0.70;;;;;;;19.74;48.56;100586.13;4920054;28;98666;-64
2021/09/24 11:13:55;;;;;;;4.63;0.75;;;;;;;19.67;48.60;100583.09;4918863;28;110349;-63
2021/09/24 11:16:27;;;;;;;4.90;0.73;;;;;;;19.65;49.19;100579.06;4918758;28;99789;-62
2021/09/24 11:19:00;;;;;;;4.20;0.75;;;;;;;19.67;48.65;100574.06;4919620;28;97999;-66